KSAV/SAV METAR and TAF weather

Enter ICAO airport designator
Station Type Date Time Source
KSAV METAR 2022/06/27 17:53 UTC NOAA

KSAV 271753Z VRB03KT 10SM SCT041 BKN250 32/16 A3007 RMK AO2 SLP183 T03220161 10328 20233 58014


Station Type Date Time Source
KSAV Decoded METAR 2022/06/27 17:53 UTC NOAA

SAVANNAH INTERNATIONAL AIRPORT , GA, United States (KSAV) 32-07N 81-12W 14M
Jun 27, 2022 - 01:53 PM EDT / 2022.06.27 1753 UTC
Wind: Variable at 3 MPH (3 KT):0
Visibility: 10 mile(s):0
Sky conditions: mostly cloudy
Temperature: 90.0 F (32.2 C)
Dew Point: 61.0 F (16.1 C)
Relative Humidity: 38%
Pressure (altimeter): 30.07 in. Hg (1018 hPa)
Pressure tendency: 0.04 inches (1.4 hPa) lower than three hours ago
ob: KSAV 271753Z VRB03KT 10SM SCT041 BKN250 32/16 A3007 RMK AO2 SLP183 T03220161 10328 20233 58014
cycle: 18

Station Type Date Time Source
KSAV TAF 2022/06/27 18:23 UTC NOAA

TAF KSAV 271720Z 2718/2818 VRB05KT P6SM SCT050
FM272000 13011KT P6SM FEW060 SCT250
FM280200 VRB03KT P6SM FEW080 BKN250
FM281500 VRB04KT P6SM VCSH SCT035 BKN080

Example: see airport list